createdAt,value
2023-05-17T00:01:43.314Z,6.80
2023-05-17T00:04:10.416Z,6.80
2023-05-17T00:06:37.188Z,6.70
2023-05-17T00:09:04.047Z,6.70
2023-05-17T00:11:31.591Z,6.70
2023-05-17T00:13:58.470Z,6.60
2023-05-17T00:16:25.233Z,6.60
2023-05-17T00:18:52.086Z,6.70
2023-05-17T00:21:18.919Z,6.60
2023-05-17T00:23:45.682Z,6.70
2023-05-17T00:26:13.713Z,6.60
2023-05-17T00:28:40.415Z,6.60
2023-05-17T00:31:07.165Z,6.60
2023-05-17T00:33:33.931Z,6.50
2023-05-17T00:36:00.843Z,6.40
2023-05-17T00:38:27.600Z,8.90
2023-05-17T00:40:54.584Z,6.30
2023-05-17T00:43:21.276Z,6.20
2023-05-17T00:45:50.183Z,5.10
2023-05-17T00:48:17.132Z,6.10
2023-05-17T00:50:43.913Z,6.20
2023-05-17T00:53:16.121Z,6.20
2023-05-17T00:55:44.121Z,6.20
2023-05-17T00:58:12.964Z,6.20
2023-05-17T01:00:39.678Z,6.10
2023-05-17T01:03:06.655Z,6.00
2023-05-17T01:05:33.772Z,6.00
2023-05-17T01:08:00.766Z,6.00
2023-05-17T01:10:41.450Z,5.90
2023-05-17T01:13:15.975Z,5.90
2023-05-17T01:15:53.311Z,6.00
2023-05-17T01:18:28.251Z,5.90
2023-05-17T01:20:58.776Z,5.90
2023-05-17T01:23:32.091Z,5.90
2023-05-17T01:26:38.833Z,5.90
2023-05-17T01:29:07.848Z,5.90
2023-05-17T01:31:36.511Z,6.00
2023-05-17T01:34:10.775Z,6.00
2023-05-17T01:36:37.525Z,5.90
2023-05-17T01:39:04.407Z,5.90
2023-05-17T01:41:39.829Z,5.90
2023-05-17T01:44:33.787Z,5.90
2023-05-17T01:47:14.863Z,5.90
2023-05-17T01:49:46.393Z,9.00
2023-05-17T01:52:16.999Z,6.00
2023-05-17T01:55:06.498Z,6.00
2023-05-17T01:57:36.792Z,6.00
2023-05-17T02:00:08.080Z,6.00
2023-05-17T02:02:35.820Z,6.00
2023-05-17T02:05:02.633Z,5.90
2023-05-17T02:07:29.354Z,5.80
2023-05-17T02:09:56.046Z,5.80
2023-05-17T02:12:22.776Z,5.80
2023-05-17T02:14:49.584Z,5.70
2023-05-17T02:17:16.308Z,5.70
2023-05-17T02:19:43.046Z,5.60
2023-05-17T02:22:09.721Z,5.60
2023-05-17T02:24:36.555Z,5.60
2023-05-17T02:27:03.683Z,5.60
2023-05-17T02:29:30.835Z,5.60
2023-05-17T02:31:57.603Z,5.60
2023-05-17T02:34:24.344Z,5.60
2023-05-17T02:36:52.062Z,5.50
2023-05-17T02:39:18.939Z,5.50
2023-05-17T02:41:45.700Z,5.50
2023-05-17T02:44:12.414Z,5.50
2023-05-17T02:46:39.111Z,5.50
2023-05-17T02:49:06.054Z,5.50
2023-05-17T02:51:32.732Z,5.50
2023-05-17T02:53:59.532Z,5.50
2023-05-17T02:56:26.200Z,5.40
2023-05-17T02:58:52.912Z,5.40
2023-05-17T03:01:19.709Z,5.40
2023-05-17T03:03:46.533Z,5.50
2023-05-17T03:06:13.304Z,5.50
2023-05-17T03:08:40.324Z,5.50
2023-05-17T03:11:07.416Z,5.50
2023-05-17T03:13:34.149Z,5.50
2023-05-17T03:16:00.671Z,5.60
2023-05-17T03:18:27.525Z,5.60
2023-05-17T03:20:54.293Z,5.50
2023-05-17T03:23:21.497Z,5.50
2023-05-17T03:25:48.228Z,5.40
2023-05-17T03:28:14.930Z,5.30
2023-05-17T03:30:41.806Z,5.30
2023-05-17T03:33:08.611Z,5.20
2023-05-17T03:35:35.407Z,5.10
2023-05-17T03:38:02.141Z,5.00
2023-05-17T03:40:31.127Z,4.90
2023-05-17T03:42:57.834Z,4.80
2023-05-17T03:45:24.567Z,4.60
2023-05-17T03:47:51.291Z,4.60
2023-05-17T03:50:18.227Z,4.60
2023-05-17T03:52:46.159Z,4.50
2023-05-17T03:55:12.968Z,4.40
2023-05-17T03:57:39.758Z,4.40
2023-05-17T04:00:11.598Z,4.40
2023-05-17T04:02:38.751Z,4.40
2023-05-17T04:05:06.023Z,4.40
2023-05-17T04:07:32.823Z,4.40
2023-05-17T04:09:59.554Z,4.40
2023-05-17T04:12:26.424Z,4.40
2023-05-17T04:14:53.166Z,4.50
2023-05-17T04:17:19.924Z,4.60
2023-05-17T04:19:46.911Z,4.90
2023-05-17T04:22:13.916Z,4.90
2023-05-17T04:24:40.606Z,5.10
2023-05-17T04:27:08.167Z,5.30
2023-05-17T04:29:34.920Z,5.40
2023-05-17T04:32:01.659Z,5.60
2023-05-17T04:34:28.554Z,5.80
2023-05-17T04:36:55.271Z,6.00
2023-05-17T04:39:22.248Z,6.20
2023-05-17T04:41:49.047Z,6.30
2023-05-17T04:44:15.774Z,6.40
2023-05-17T04:46:43.889Z,6.60
2023-05-17T04:49:10.719Z,6.70
2023-05-17T04:51:37.453Z,6.80
2023-05-17T04:54:06.930Z,6.90
2023-05-17T04:56:35.913Z,7.00
2023-05-17T04:59:03.563Z,9.80
2023-05-17T05:01:30.969Z,7.20
2023-05-17T05:03:58.550Z,7.20
2023-05-17T05:06:25.374Z,7.30
2023-05-17T05:08:52.709Z,7.40
2023-05-17T05:11:19.505Z,7.50
2023-05-17T05:13:46.277Z,7.60
2023-05-17T05:16:13.042Z,7.60
2023-05-17T05:18:40.888Z,7.70
2023-05-17T05:21:07.616Z,7.80
2023-05-17T05:23:34.342Z,8.00
2023-05-17T05:26:01.393Z,8.20
2023-05-17T05:28:28.274Z,8.30
2023-05-17T05:31:02.127Z,8.40
2023-05-17T05:33:28.946Z,8.50
2023-05-17T05:35:55.714Z,8.70
2023-05-17T05:38:22.661Z,8.80
2023-05-17T05:40:49.431Z,9.00
2023-05-17T05:43:16.563Z,9.10
2023-05-17T05:45:46.628Z,9.10
2023-05-17T05:48:14.027Z,9.20
2023-05-17T05:50:42.926Z,9.30
2023-05-17T05:53:18.715Z,9.30
2023-05-17T05:55:49.499Z,9.30
2023-05-17T05:58:16.258Z,9.40
2023-05-17T06:00:42.974Z,9.50
2023-05-17T06:03:09.748Z,9.70
2023-05-17T06:05:36.566Z,9.80
2023-05-17T06:08:03.522Z,9.90
2023-05-17T06:10:30.669Z,9.90
2023-05-17T06:12:57.694Z,9.80
2023-05-17T06:15:24.471Z,10.00
2023-05-17T06:17:51.297Z,10.00
2023-05-17T06:20:18.208Z,10.00
2023-05-17T06:22:44.941Z,10.00
2023-05-17T06:25:11.657Z,10.10
2023-05-17T06:27:38.572Z,10.10
2023-05-17T06:30:07.398Z,10.20
2023-05-17T06:32:34.787Z,10.10
2023-05-17T06:35:01.886Z,10.10
2023-05-17T06:37:28.648Z,10.10
2023-05-17T06:40:14.923Z,10.20
2023-05-17T06:42:43.027Z,10.30
2023-05-17T06:45:10.350Z,10.30
2023-05-17T06:47:39.510Z,10.40
2023-05-17T06:50:07.463Z,13.90
2023-05-17T06:52:34.964Z,10.40
2023-05-17T06:55:01.893Z,10.50
2023-05-17T06:57:28.681Z,10.50
2023-05-17T06:59:55.489Z,10.60
2023-05-17T07:02:22.261Z,10.70
2023-05-17T07:04:48.975Z,10.70
2023-05-17T07:07:15.814Z,10.80
2023-05-17T07:09:42.575Z,10.90
2023-05-17T07:12:09.399Z,11.00
2023-05-17T07:14:36.176Z,11.10
2023-05-17T07:17:02.973Z,11.40
2023-05-17T07:19:29.911Z,11.50
2023-05-17T07:21:56.708Z,11.50
2023-05-17T07:24:23.455Z,11.70
2023-05-17T07:26:52.168Z,11.80
2023-05-17T07:29:19.286Z,11.90
2023-05-17T07:31:45.981Z,12.10
2023-05-17T07:34:13.667Z,12.20
2023-05-17T07:36:40.690Z,12.20
2023-05-17T07:39:08.756Z,12.30
2023-05-17T07:41:36.982Z,12.50
2023-05-17T07:44:03.878Z,12.80
2023-05-17T07:46:30.634Z,13.00
2023-05-17T07:48:58.759Z,13.20
2023-05-17T07:51:26.376Z,13.20
2023-05-17T07:53:53.190Z,13.40
2023-05-17T07:56:19.938Z,13.40
2023-05-17T07:58:46.728Z,13.50
2023-05-17T08:01:13.467Z,13.60
2023-05-17T08:03:47.602Z,13.70
2023-05-17T08:06:16.110Z,13.70
2023-05-17T08:08:43.281Z,13.80
2023-05-17T08:11:11.679Z,14.00
2023-05-17T08:13:38.634Z,14.10
2023-05-17T08:16:13.552Z,14.10
2023-05-17T08:18:42.283Z,14.10
2023-05-17T08:21:09.750Z,14.20
2023-05-17T08:23:36.652Z,14.40
2023-05-17T08:26:03.396Z,14.50
2023-05-17T08:28:30.323Z,14.70
2023-05-17T08:30:57.922Z,14.90
2023-05-17T08:33:26.115Z,15.00
2023-05-17T08:35:55.349Z,15.20
2023-05-17T08:38:22.581Z,15.30
2023-05-17T08:40:56.989Z,15.40
2023-05-17T08:43:27.376Z,15.50
2023-05-17T08:45:57.555Z,15.20
2023-05-17T08:48:26.469Z,15.20
2023-05-17T08:50:55.877Z,15.40
2023-05-17T08:53:23.547Z,15.50
2023-05-17T08:55:51.414Z,15.70
2023-05-17T08:58:21.413Z,16.00
2023-05-17T09:00:51.684Z,16.20
2023-05-17T09:03:19.261Z,16.20
2023-05-17T09:05:46.463Z,16.40
2023-05-17T09:08:14.233Z,16.40
2023-05-17T09:10:41.803Z,16.40
2023-05-17T09:13:12.659Z,16.90
2023-05-17T09:15:43.078Z,17.30
2023-05-17T09:18:12.585Z,17.30
2023-05-17T09:20:40.842Z,16.90
2023-05-17T09:23:11.164Z,16.40
2023-05-17T09:25:37.929Z,14.90
2023-05-17T09:28:07.841Z,15.70
2023-05-17T09:30:38.910Z,15.30
2023-05-17T09:33:07.459Z,15.00
2023-05-17T09:35:35.328Z,14.80
2023-05-17T09:38:12.681Z,14.70
2023-05-17T09:40:42.582Z,14.60
2023-05-17T09:43:10.479Z,14.80
2023-05-17T09:45:37.822Z,15.10
2023-05-17T09:48:22.251Z,15.30
2023-05-17T09:50:50.843Z,15.20
2023-05-17T09:53:40.030Z,15.20
2023-05-17T09:56:07.569Z,15.20
2023-05-17T09:58:36.743Z,15.30
2023-05-17T10:01:07.350Z,15.40
2023-05-17T10:03:37.171Z,15.30
2023-05-17T10:06:07.140Z,15.30
2023-05-17T10:08:34.348Z,15.40
2023-05-17T10:11:09.446Z,15.40
2023-05-17T10:14:02.032Z,15.40
2023-05-17T10:16:29.652Z,15.40
2023-05-17T10:18:56.894Z,15.60
2023-05-17T10:21:24.051Z,15.90
2023-05-17T10:23:51.413Z,16.10
2023-05-17T10:26:18.825Z,16.40
2023-05-17T10:28:46.427Z,16.50
2023-05-17T10:31:13.202Z,16.70
2023-05-17T10:33:42.677Z,17.00
2023-05-17T10:36:10.937Z,17.20
2023-05-17T10:38:42.577Z,17.20
2023-05-17T10:41:12.813Z,17.20
2023-05-17T10:43:42.042Z,17.00
2023-05-17T10:46:17.878Z,16.80
2023-05-17T10:48:45.130Z,16.40
2023-05-17T10:51:12.109Z,16.10
2023-05-17T10:54:22.168Z,16.00
2023-05-17T10:56:51.371Z,16.00
2023-05-17T10:59:21.695Z,16.00
2023-05-17T11:02:09.795Z,16.00
2023-05-17T11:04:39.265Z,16.00
2023-05-17T11:07:29.310Z,15.90
2023-05-17T11:10:07.166Z,15.80
2023-05-17T11:12:38.439Z,15.50
2023-05-17T11:15:10.890Z,15.20
2023-05-17T11:17:50.430Z,16.00
2023-05-17T11:20:18.803Z,15.00
2023-05-17T11:23:07.043Z,15.20
2023-05-17T11:25:35.883Z,15.30
2023-05-17T11:28:19.698Z,15.10
2023-05-17T11:30:51.987Z,15.00
2023-05-17T11:33:32.831Z,14.80
2023-05-17T11:36:06.814Z,14.50
2023-05-17T11:38:34.328Z,14.10
2023-05-17T11:41:26.373Z,13.90
2023-05-17T11:43:54.471Z,13.80
2023-05-17T11:46:23.970Z,13.70
2023-05-17T11:48:52.833Z,13.70
2023-05-17T11:51:22.602Z,13.80
2023-05-17T11:53:54.360Z,14.00
2023-05-17T11:56:32.129Z,14.10
2023-05-17T11:59:09.575Z,14.10
2023-05-17T12:01:46.330Z,14.10
2023-05-17T12:04:13.843Z,14.20
2023-05-17T12:06:41.108Z,14.40
2023-05-17T12:09:11.095Z,14.60
2023-05-17T12:11:39.598Z,14.80
2023-05-17T12:14:07.270Z,14.90
2023-05-17T12:16:36.707Z,14.90
2023-05-17T12:19:03.952Z,15.00
2023-05-17T12:21:30.832Z,15.00
2023-05-17T12:23:57.670Z,15.00
2023-05-17T12:26:24.800Z,15.10
2023-05-17T12:28:56.238Z,15.30
2023-05-17T12:31:26.626Z,15.40
2023-05-17T12:33:53.813Z,15.50
2023-05-17T12:36:22.376Z,15.70
2023-05-17T12:38:49.711Z,15.90
2023-05-17T12:41:16.889Z,16.10
2023-05-17T12:43:45.859Z,16.40
2023-05-17T12:46:18.778Z,16.70
2023-05-17T12:48:46.327Z,16.70
2023-05-17T12:51:14.777Z,16.40
2023-05-17T12:53:43.504Z,16.10
2023-05-17T12:56:16.525Z,16.10
2023-05-17T12:58:43.377Z,16.10
2023-05-17T13:01:14.308Z,16.20
2023-05-17T13:03:42.448Z,16.30
2023-05-17T13:06:10.293Z,16.20
2023-05-17T13:08:37.618Z,16.10
2023-05-17T13:11:07.018Z,15.90
2023-05-17T13:13:34.419Z,15.60
2023-05-17T13:16:01.178Z,15.40
2023-05-17T13:18:28.766Z,15.20
2023-05-17T13:20:55.653Z,14.80
2023-05-17T13:23:22.336Z,14.60
2023-05-17T13:25:49.098Z,14.50
2023-05-17T13:28:15.831Z,14.60
2023-05-17T13:30:48.677Z,14.90
2023-05-17T13:33:15.846Z,15.20
2023-05-17T13:35:42.707Z,15.60
2023-05-17T13:38:09.409Z,16.00
2023-05-17T13:40:36.287Z,16.60
2023-05-17T13:43:03.261Z,17.00
2023-05-17T13:45:29.994Z,17.50
2023-05-17T13:47:57.153Z,17.90
2023-05-17T13:50:24.077Z,18.30
2023-05-17T13:52:50.779Z,18.60
2023-05-17T13:55:17.610Z,18.70
2023-05-17T13:57:45.632Z,18.60
2023-05-17T14:00:12.768Z,18.50
2023-05-17T14:02:39.920Z,18.20
2023-05-17T14:05:07.984Z,18.00
2023-05-17T14:07:34.698Z,17.90
2023-05-17T14:10:02.081Z,17.80
2023-05-17T14:12:28.965Z,17.70
2023-05-17T14:14:55.891Z,17.50
2023-05-17T14:17:22.682Z,17.50
2023-05-17T14:19:49.592Z,17.80
2023-05-17T14:22:16.384Z,18.10
2023-05-17T14:24:43.113Z,18.40
2023-05-17T14:27:10.038Z,18.30
2023-05-17T14:29:36.752Z,18.80
2023-05-17T14:32:03.681Z,19.30
2023-05-17T14:34:30.924Z,19.40
2023-05-17T14:36:57.603Z,19.50
2023-05-17T14:39:24.324Z,19.10
2023-05-17T14:41:51.036Z,18.80
2023-05-17T14:44:17.808Z,18.60
2023-05-17T14:46:44.491Z,18.40
2023-05-17T14:49:11.223Z,18.20
2023-05-17T14:51:37.941Z,18.30
2023-05-17T14:54:05.922Z,19.30
2023-05-17T14:56:32.666Z,21.40
2023-05-17T14:58:59.912Z,23.40
2023-05-17T15:01:26.680Z,21.80
2023-05-17T15:03:53.402Z,26.20
2023-05-17T15:06:24.820Z,27.80
2023-05-17T15:08:51.888Z,27.70
2023-05-17T15:11:18.600Z,26.80
2023-05-17T15:13:45.299Z,25.20
2023-05-17T15:16:12.148Z,24.60
2023-05-17T15:18:39.007Z,24.40
2023-05-17T15:21:05.773Z,24.20
2023-05-17T15:23:32.617Z,24.10
2023-05-17T15:25:59.301Z,23.40
2023-05-17T15:28:26.114Z,22.30
2023-05-17T15:31:10.743Z,21.30
2023-05-17T15:33:40.291Z,20.70
2023-05-17T15:36:07.437Z,22.30
2023-05-17T15:38:34.113Z,20.10
2023-05-17T15:41:04.424Z,19.70
2023-05-17T15:43:33.194Z,19.30
2023-05-17T15:46:00.824Z,18.80
2023-05-17T15:48:30.785Z,19.10
2023-05-17T15:50:58.195Z,19.40
2023-05-17T15:53:26.229Z,19.50
2023-05-17T15:55:53.110Z,19.50
2023-05-17T15:58:21.206Z,19.50
2023-05-17T16:00:48.252Z,19.20
2023-05-17T16:03:15.701Z,19.40
2023-05-17T16:05:43.088Z,20.20
2023-05-17T16:08:10.769Z,20.40
2023-05-17T16:10:37.777Z,20.20
2023-05-17T16:13:05.949Z,20.10
2023-05-17T16:15:33.094Z,21.20
2023-05-17T16:17:59.891Z,21.20
2023-05-17T16:20:26.850Z,22.50
2023-05-17T16:22:53.848Z,23.40
2023-05-17T16:25:24.264Z,22.80
2023-05-17T16:27:51.320Z,22.80
2023-05-17T16:30:18.794Z,23.20
2023-05-17T16:32:46.180Z,23.30
2023-05-17T16:35:14.087Z,23.90
2023-05-17T16:37:41.651Z,24.10
2023-05-17T16:40:09.263Z,23.50
2023-05-17T16:42:36.422Z,22.30
2023-05-17T16:45:04.432Z,21.20
2023-05-17T16:47:33.091Z,20.40
2023-05-17T16:50:01.400Z,19.60
2023-05-17T16:52:30.023Z,19.00
2023-05-17T16:55:03.161Z,18.60
2023-05-17T16:57:31.768Z,18.20
2023-05-17T17:00:00.798Z,17.80
2023-05-17T17:02:28.621Z,17.50
2023-05-17T17:04:55.757Z,17.40
2023-05-17T17:07:22.500Z,20.90
2023-05-17T17:09:49.303Z,17.10
2023-05-17T17:12:24.183Z,17.00
2023-05-17T17:14:52.419Z,16.90
2023-05-17T17:17:19.125Z,17.00
2023-05-17T17:19:45.977Z,17.00
2023-05-17T17:22:14.595Z,16.90
2023-05-17T17:24:41.780Z,16.90
2023-05-17T17:27:08.571Z,16.80
2023-05-17T17:29:35.528Z,16.60
2023-05-17T17:32:02.741Z,16.60
2023-05-17T17:34:29.564Z,16.60
2023-05-17T17:36:57.323Z,16.70
2023-05-17T17:39:24.042Z,16.70
2023-05-17T17:41:51.086Z,16.80
2023-05-17T17:44:17.796Z,16.80
2023-05-17T17:46:44.563Z,16.80
2023-05-17T17:49:11.328Z,16.70
2023-05-17T17:51:38.027Z,16.60
2023-05-17T17:54:07.174Z,16.50
2023-05-17T17:56:33.915Z,16.30
2023-05-17T17:59:00.631Z,16.10
2023-05-17T18:01:28.108Z,15.90
2023-05-17T18:03:55.006Z,15.70
2023-05-17T18:06:21.788Z,15.50
2023-05-17T18:08:48.482Z,15.20
2023-05-17T18:11:15.851Z,15.30
2023-05-17T18:13:42.644Z,15.20
2023-05-17T18:16:09.397Z,15.10
2023-05-17T18:18:40.419Z,15.10
2023-05-17T18:21:09.040Z,15.00
2023-05-17T18:23:36.865Z,14.80
2023-05-17T18:26:03.768Z,14.70
2023-05-17T18:28:41.343Z,14.50
2023-05-17T18:31:09.459Z,14.40
2023-05-17T18:33:36.486Z,14.20
2023-05-17T18:36:03.386Z,14.00
2023-05-17T18:38:30.194Z,13.80
2023-05-17T18:40:56.987Z,13.70
2023-05-17T18:43:23.706Z,13.50
2023-05-17T18:45:51.225Z,13.40
2023-05-17T18:48:18.110Z,13.20
2023-05-17T18:50:44.905Z,13.10
2023-05-17T18:53:12.884Z,12.90
2023-05-17T18:55:40.623Z,12.70
2023-05-17T18:58:07.838Z,12.60
2023-05-17T19:00:34.550Z,12.50
2023-05-17T19:03:01.801Z,12.40
2023-05-17T19:05:28.675Z,12.10
2023-05-17T19:07:55.716Z,12.10
2023-05-17T19:10:22.540Z,12.00
2023-05-17T19:12:49.245Z,11.80
2023-05-17T19:15:16.199Z,12.70
2023-05-17T19:17:43.080Z,11.60
2023-05-17T19:20:10.229Z,11.60
2023-05-17T19:22:37.064Z,11.50
2023-05-17T19:25:04.395Z,11.40
2023-05-17T19:27:32.468Z,11.30
2023-05-17T19:29:59.192Z,11.30
2023-05-17T19:32:26.857Z,11.20
2023-05-17T19:34:54.863Z,11.10
2023-05-17T19:37:21.635Z,11.00
2023-05-17T19:39:48.407Z,10.80
2023-05-17T19:42:15.123Z,10.70
2023-05-17T19:44:41.851Z,10.60
2023-05-17T19:47:08.534Z,10.60
2023-05-17T19:49:35.513Z,10.60
2023-05-17T19:52:02.469Z,10.50
2023-05-17T19:54:29.715Z,10.50
2023-05-17T19:56:57.086Z,10.40
2023-05-17T19:59:23.848Z,10.60
2023-05-17T20:01:50.702Z,10.30
2023-05-17T20:04:17.593Z,12.80
2023-05-17T20:06:44.419Z,10.20
2023-05-17T20:09:11.196Z,10.10
2023-05-17T20:11:37.886Z,10.00
2023-05-17T20:14:04.623Z,9.90
2023-05-17T20:16:31.546Z,9.80
2023-05-17T20:18:58.732Z,9.80
2023-05-17T20:21:26.304Z,9.70
2023-05-17T20:24:00.538Z,9.60
2023-05-17T20:26:31.484Z,9.50
2023-05-17T20:28:59.081Z,9.40
2023-05-17T20:31:26.243Z,9.30
2023-05-17T20:33:53.291Z,9.30
2023-05-17T20:36:20.309Z,9.20
2023-05-17T20:38:47.042Z,9.10
2023-05-17T20:41:15.851Z,9.10
2023-05-17T20:43:47.210Z,9.00
2023-05-17T20:46:16.744Z,8.90
2023-05-17T20:48:45.912Z,8.80
2023-05-17T20:51:13.044Z,8.80
2023-05-17T20:53:40.473Z,8.70
2023-05-17T20:56:07.488Z,8.80
2023-05-17T20:58:34.260Z,8.70
2023-05-17T21:01:01.254Z,8.60
2023-05-17T21:03:33.029Z,8.60
2023-05-17T21:06:01.594Z,8.50
2023-05-17T21:08:28.517Z,8.40
2023-05-17T21:10:56.120Z,8.40
2023-05-17T21:13:25.456Z,8.30
2023-05-17T21:15:53.774Z,8.30
2023-05-17T21:18:20.894Z,8.20
2023-05-17T21:20:51.456Z,8.20
2023-05-17T21:23:19.108Z,8.20
2023-05-17T21:25:46.100Z,8.20
2023-05-17T21:28:12.827Z,8.10
2023-05-17T21:30:39.541Z,8.10
2023-05-17T21:33:06.343Z,8.10
2023-05-17T21:35:33.072Z,8.00
2023-05-17T21:37:59.826Z,8.00
2023-05-17T21:40:26.575Z,8.00
2023-05-17T21:42:53.461Z,8.00
2023-05-17T21:45:20.379Z,8.00
2023-05-17T21:47:47.142Z,7.90
2023-05-17T21:50:13.989Z,7.90
2023-05-17T21:52:40.892Z,7.90
2023-05-17T21:55:08.338Z,5.50
2023-05-17T21:57:36.469Z,7.90
2023-05-17T22:00:04.597Z,7.80
2023-05-17T22:02:34.198Z,7.80
2023-05-17T22:05:00.927Z,9.60
2023-05-17T22:07:27.688Z,7.60
2023-05-17T22:09:55.184Z,7.60
2023-05-17T22:12:25.322Z,7.50
2023-05-17T22:14:54.176Z,7.40
2023-05-17T22:17:35.171Z,7.40
2023-05-17T22:20:11.444Z,7.30
2023-05-17T22:22:38.349Z,7.30
2023-05-17T22:25:06.674Z,7.20
2023-05-17T22:27:33.388Z,7.20
2023-05-17T22:30:00.062Z,7.10
2023-05-17T22:32:27.001Z,7.00
2023-05-17T22:34:53.713Z,7.00
2023-05-17T22:37:22.684Z,6.90
2023-05-17T22:39:49.745Z,6.80
2023-05-17T22:42:16.512Z,6.80
2023-05-17T22:44:43.220Z,6.70
2023-05-17T22:47:14.383Z,6.70
2023-05-17T22:49:41.595Z,6.60
2023-05-17T22:52:09.052Z,6.50
2023-05-17T22:54:36.987Z,6.40
2023-05-17T22:57:04.595Z,6.40
2023-05-17T22:59:32.840Z,5.90
2023-05-17T23:02:00.040Z,6.20
2023-05-17T23:04:27.327Z,6.20
2023-05-17T23:06:54.552Z,6.10
2023-05-17T23:09:22.137Z,6.00
2023-05-17T23:11:50.287Z,5.90
2023-05-17T23:14:17.795Z,5.90
2023-05-17T23:16:45.549Z,5.80
2023-05-17T23:19:13.617Z,5.80
2023-05-17T23:21:40.395Z,5.70
2023-05-17T23:24:08.022Z,5.70
2023-05-17T23:26:35.073Z,7.10
2023-05-17T23:29:03.524Z,5.60
2023-05-17T23:31:30.422Z,5.50
2023-05-17T23:33:57.181Z,5.50
2023-05-17T23:36:23.858Z,5.40
2023-05-17T23:38:50.560Z,5.40
2023-05-17T23:41:19.501Z,5.30
2023-05-17T23:43:46.886Z,5.30
2023-05-17T23:46:13.754Z,5.20
2023-05-17T23:48:40.649Z,5.20
2023-05-17T23:51:07.714Z,5.20
2023-05-17T23:53:34.478Z,5.10
2023-05-17T23:56:01.439Z,5.10
2023-05-17T23:58:28.240Z,5.00
